Time;durP1;ratioP1;P1;durP2;ratioP2;P2;SDS_P1;SDS_P2;PMS_P1;PMS_P2;Temp;Humidity;BMP_temperature;BMP_pressure;BME280_temperature;BME280_humidity;BME280_pressure;Samples;Min_cycle;Max_cycle;Signal;HPM_P1;HPM_P2
2021/12/13 00:01:42;;;;;;;1.63;0.97;;;;;;;;;;5054013;28;20465;-68
2021/12/13 00:04:11;;;;;;;1.03;0.93;;;;;;;;;;5079579;28;21391;-69
2021/12/13 00:06:39;;;;;;;4.27;1.80;;;;;;;;;;5061522;28;20145;-68
2021/12/13 00:09:11;;;;;;;0.40;0.40;;;;;;;;;;5075986;28;20098;-69
2021/12/13 00:11:39;;;;;;;0.77;0.70;;;;;;;;;;5080693;28;20502;-69
2021/12/13 00:14:15;;;;;;;3.40;1.40;;;;;;;;;;5060751;28;20781;-70
2021/12/13 00:16:42;;;;;;;7.73;1.67;;;;;;;;;;5060882;28;20090;-69
2021/12/13 00:19:14;;;;;;;2.07;1.80;;;;;;;;;;5060395;28;20044;-69
2021/12/13 00:21:43;;;;;;;6.37;1.77;;;;;;;;;;5081087;28;20136;-69
2021/12/13 00:24:14;;;;;;;2.03;1.63;;;;;;;;;;5063430;28;20064;-69
2021/12/13 00:26:42;;;;;;;1.53;1.27;;;;;;;;;;5062615;28;20088;-69
2021/12/13 00:29:09;;;;;;;2.50;2.23;;;;;;;;;;5082598;28;20040;-69
2021/12/13 00:31:35;;;;;;;1.37;1.00;;;;;;;;;;5079016;28;20071;-69
2021/12/13 00:34:11;;;;;;;1.97;1.83;;;;;;;;;;5076353;28;20465;-69
2021/12/13 00:36:42;;;;;;;1.97;1.37;;;;;;;;;;5080800;28;20048;-69
2021/12/13 00:39:29;;;;;;;1.77;1.00;;;;;;;;;;5080764;28;20129;-69
2021/12/13 00:41:55;;;;;;;1.60;1.50;;;;;;;;;;5080146;28;20068;-68
2021/12/13 00:44:23;;;;;;;1.10;1.10;;;;;;;;;;5060121;28;20036;-69
2021/12/13 00:46:50;;;;;;;3.97;2.47;;;;;;;;;;5061400;28;20051;-69
2021/12/13 00:49:17;;;;;;;1.40;1.10;;;;;;;;;;5082413;28;20043;-69
2021/12/13 00:51:45;;;;;;;3.70;1.07;;;;;;;;;;5077631;28;20155;-69
2021/12/13 00:54:14;;;;;;;1.43;1.33;;;;;;;;;;5081108;28;20040;-69
2021/12/13 00:57:03;;;;;;;0.40;0.33;;;;;;;;;;5079895;28;20050;-69
2021/12/13 00:59:40;;;;;;;2.23;2.03;;;;;;;;;;5078449;28;20060;-69
2021/12/13 01:02:14;;;;;;;3.27;2.97;;;;;;;;;;5061311;28;20047;-69
2021/12/13 01:04:59;;;;;;;3.63;1.67;;;;;;;;;;5060560;28;20063;-68
2021/12/13 01:07:34;;;;;;;5.20;1.83;;;;;;;;;;5078951;28;20147;-68
2021/12/13 01:10:18;;;;;;;1.77;1.60;;;;;;;;;;5057314;28;20051;-69
2021/12/13 01:12:47;;;;;;;1.63;0.90;;;;;;;;;;5060818;28;20084;-69
2021/12/13 01:15:33;;;;;;;1.40;1.30;;;;;;;;;;5056162;28;20630;-69
2021/12/13 01:18:29;;;;;;;0.60;0.60;;;;;;;;;;5058224;28;20052;-69
2021/12/13 01:21:04;;;;;;;2.10;1.73;;;;;;;;;;5062392;28;20048;-69
2021/12/13 01:23:48;;;;;;;1.37;1.27;;;;;;;;;;5076752;28;20041;-69
2021/12/13 01:28:51;;;;;;;0.50;0.47;;;;;;;;;;5075866;28;20040;-69
2021/12/13 01:31:32;;;;;;;2.25;0.63;;;;;;;;;;5077343;28;20040;-69
2021/12/13 01:33:59;;;;;;;3.73;1.30;;;;;;;;;;5079042;28;20040;-69
2021/12/13 01:36:28;;;;;;;0.90;0.87;;;;;;;;;;5064736;28;20481;-69
2021/12/13 01:38:57;;;;;;;1.30;1.03;;;;;;;;;;5079196;28;20044;-69
2021/12/13 01:41:28;;;;;;;3.37;1.63;;;;;;;;;;5072240;28;20048;-69
2021/12/13 01:43:57;;;;;;;2.63;1.40;;;;;;;;;;5074231;28;20556;-69
2021/12/13 01:46:24;;;;;;;0.70;0.60;;;;;;;;;;5077234;28;20040;-69
2021/12/13 01:48:51;;;;;;;1.80;1.13;;;;;;;;;;5080255;28;20068;-69
2021/12/13 01:51:20;;;;;;;3.60;1.63;;;;;;;;;;5078322;28;21585;-69
2021/12/13 01:53:48;;;;;;;0.93;0.70;;;;;;;;;;5079330;28;20066;-69
2021/12/13 01:59:28;;;;;;;1.47;1.03;;;;;;;;;;5078867;28;20040;-70
2021/12/13 02:01:56;;;;;;;1.37;1.27;;;;;;;;;;5078435;28;20286;-69
2021/12/13 02:04:22;;;;;;;1.07;0.67;;;;;;;;;;5078016;28;20044;-69
2021/12/13 02:06:56;;;;;;;2.17;1.47;;;;;;;;;;5068497;28;20040;-69
2021/12/13 02:09:26;;;;;;;0.80;0.80;;;;;;;;;;5091212;28;20043;-69
2021/12/13 02:11:53;;;;;;;0.50;0.50;;;;;;;;;;5082872;28;20040;-69
2021/12/13 02:14:21;;;;;;;1.50;0.43;;;;;;;;;;5083816;28;20036;-69
2021/12/13 02:16:58;;;;;;;4.83;2.40;;;;;;;;;;5073325;28;20056;-69
2021/12/13 02:19:34;;;;;;;1.40;1.23;;;;;;;;;;5073261;28;20055;-69
2021/12/13 02:22:19;;;;;;;2.60;1.73;;;;;;;;;;5064884;28;20055;-69
2021/12/13 02:24:45;;;;;;;1.17;1.10;;;;;;;;;;5091673;28;20044;-69
2021/12/13 02:27:11;;;;;;;1.63;1.53;;;;;;;;;;5091429;28;20040;-69
2021/12/13 02:29:38;;;;;;;2.90;1.70;;;;;;;;;;5073038;28;20048;-69
2021/12/13 02:32:09;;;;;;;1.03;0.93;;;;;;;;;;5091672;28;20048;-69
2021/12/13 02:34:37;;;;;;;1.40;1.03;;;;;;;;;;5080563;28;20135;-69
2021/12/13 02:37:03;;;;;;;5.50;1.63;;;;;;;;;;5058789;28;20044;-69
2021/12/13 02:39:31;;;;;;;0.93;0.77;;;;;;;;;;5072484;28;20051;-69
2021/12/13 02:41:58;;;;;;;0.93;0.60;;;;;;;;;;5090822;28;20044;-69
2021/12/13 02:44:36;;;;;;;2.87;2.00;;;;;;;;;;5091341;28;20055;-69
2021/12/13 02:47:04;;;;;;;1.60;1.27;;;;;;;;;;5084048;28;20047;-69
2021/12/13 02:49:32;;;;;;;0.30;0.30;;;;;;;;;;5082279;28;20044;-69
2021/12/13 02:52:00;;;;;;;1.03;1.00;;;;;;;;;;5087189;28;20475;-69
2021/12/13 02:54:28;;;;;;;0.40;0.40;;;;;;;;;;5087251;28;20077;-69
2021/12/13 02:56:57;;;;;;;3.03;1.93;;;;;;;;;;5090300;28;20536;-69
2021/12/13 02:59:25;;;;;;;1.80;1.70;;;;;;;;;;5072883;28;20047;-69
2021/12/13 03:01:59;;;;;;;2.00;1.90;;;;;;;;;;5090902;28;20897;-69
2021/12/13 03:04:27;;;;;;;1.03;0.67;;;;;;;;;;5082312;28;20040;-69
2021/12/13 03:06:55;;;;;;;3.57;1.27;;;;;;;;;;5090674;28;20054;-69
2021/12/13 03:09:23;;;;;;;1.17;1.07;;;;;;;;;;5087567;28;20043;-69
2021/12/13 03:11:50;;;;;;;17.83;1.20;;;;;;;;;;5082480;28;20482;-69
2021/12/13 03:14:40;;;;;;;1.03;0.97;;;;;;;;;;5059720;28;20502;-69
2021/12/13 03:17:14;;;;;;;0.47;0.47;;;;;;;;;;5076998;28;20056;-69
2021/12/13 03:19:42;;;;;;;0.75;0.75;;;;;;;;;;5080118;28;20097;-69
2021/12/13 03:22:23;;;;;;;1.57;0.87;;;;;;;;;;5061967;28;20043;-69
2021/12/13 03:25:07;;;;;;;0.57;0.57;;;;;;;;;;5062220;28;20040;-69
2021/12/13 03:27:42;;;;;;;1.17;1.10;;;;;;;;;;5063157;28;20048;-69
2021/12/13 03:30:10;;;;;;;0.67;0.67;;;;;;;;;;5080682;28;20079;-70
2021/12/13 03:32:43;;;;;;;0.60;0.60;;;;;;;;;;5062403;28;20096;-69
2021/12/13 03:35:14;;;;;;;1.17;1.07;;;;;;;;;;5061488;28;20044;-69
2021/12/13 03:37:42;;;;;;;4.63;1.90;;;;;;;;;;5059504;28;20294;-69
2021/12/13 03:40:19;;;;;;;1.23;1.07;;;;;;;;;;5062070;28;20560;-69
2021/12/13 03:42:49;;;;;;;0.30;0.30;;;;;;;;;;5084318;28;20416;-69
2021/12/13 03:45:18;;;;;;;0.30;0.30;;;;;;;;;;5089871;28;20047;-70
2021/12/13 03:47:45;;;;;;;2.53;0.63;;;;;;;;;;5089911;28;20044;-69
2021/12/13 03:50:14;;;;;;;0.20;0.20;;;;;;;;;;5089092;28;20048;-69
2021/12/13 03:52:44;;;;;;;0.40;0.40;;;;;;;;;;5083715;28;20138;-69
2021/12/13 03:55:11;;;;;;;0.37;0.20;;;;;;;;;;5087123;28;20036;-69
2021/12/13 03:57:38;;;;;;;3.60;0.47;;;;;;;;;;5058500;28;20086;-69
2021/12/13 04:00:06;;;;;;;0.40;0.40;;;;;;;;;;5086329;28;20738;-69
2021/12/13 04:02:36;;;;;;;0.17;0.17;;;;;;;;;;5077925;28;20037;-70
2021/12/13 04:05:07;;;;;;;1.00;0.77;;;;;;;;;;5066878;28;20102;-69
2021/12/13 04:07:35;;;;;;;1.30;0.83;;;;;;;;;;5081262;28;20101;-69
2021/12/13 04:10:05;;;;;;;0.27;0.20;;;;;;;;;;5082002;28;20128;-69
2021/12/13 04:12:40;;;;;;;0.83;0.83;;;;;;;;;;5067179;28;20406;-70
2021/12/13 04:15:15;;;;;;;2.17;0.90;;;;;;;;;;5067298;28;20040;-69
2021/12/13 04:17:56;;;;;;;0.37;0.37;;;;;;;;;;5084739;28;20050;-69
2021/12/13 04:20:25;;;;;;;0.73;0.73;;;;;;;;;;5069335;28;20036;-69
2021/12/13 04:22:56;;;;;;;0.37;0.37;;;;;;;;;;5084002;28;20037;-69
2021/12/13 04:25:24;;;;;;;0.70;0.70;;;;;;;;;;5051793;28;20145;-69
2021/12/13 04:27:56;;;;;;;0.70;0.60;;;;;;;;;;5070160;28;20938;-70
2021/12/13 04:30:28;;;;;;;1.70;0.73;;;;;;;;;;5062221;28;20040;-69
2021/12/13 04:32:57;;;;;;;2.10;1.23;;;;;;;;;;5088802;28;20123;-69
2021/12/13 04:35:23;;;;;;;0.10;0.10;;;;;;;;;;5080954;28;20036;-69
2021/12/13 04:37:52;;;;;;;0.47;0.30;;;;;;;;;;5088833;28;20109;-69
2021/12/13 04:40:20;;;;;;;0.20;0.20;;;;;;;;;;5070658;28;20405;-69
2021/12/13 04:42:50;;;;;;;2.93;0.77;;;;;;;;;;5088524;28;20123;-69
2021/12/13 04:45:18;;;;;;;0.37;0.37;;;;;;;;;;5088787;28;20935;-69
2021/12/13 04:47:55;;;;;;;0.87;0.87;;;;;;;;;;5080179;28;20070;-70
2021/12/13 04:50:26;;;;;;;0.07;0.07;;;;;;;;;;5069797;28;20497;-69
2021/12/13 04:52:53;;;;;;;1.70;0.50;;;;;;;;;;5076364;28;20040;-69
2021/12/13 04:55:21;;;;;;;0.93;0.50;;;;;;;;;;5041743;28;20414;-69
2021/12/13 04:57:48;;;;;;;0.10;0.10;;;;;;;;;;5080237;28;20051;-70
2021/12/13 05:00:16;;;;;;;3.80;1.80;;;;;;;;;;5088402;28;20405;-70
2021/12/13 05:02:44;;;;;;;0.40;0.40;;;;;;;;;;5065125;28;20055;-69
2021/12/13 05:05:10;;;;;;;1.23;1.13;;;;;;;;;;5070838;28;20276;-69
2021/12/13 05:07:36;;;;;;;0.10;0.10;;;;;;;;;;5069047;28;20539;-69
2021/12/13 05:10:03;;;;;;;1.43;0.77;;;;;;;;;;5081332;28;20036;-70
2021/12/13 05:12:30;;;;;;;1.17;0.47;;;;;;;;;;5063139;28;20119;-69
2021/12/13 05:14:59;;;;;;;4.93;0.40;;;;;;;;;;5088178;28;20111;-69
2021/12/13 05:17:28;;;;;;;0.53;0.53;;;;;;;;;;5061600;28;20113;-69
2021/12/13 05:19:58;;;;;;;0.67;0.63;;;;;;;;;;5088322;28;20044;-69
2021/12/13 05:22:24;;;;;;;0.73;0.73;;;;;;;;;;5070402;28;20504;-69
2021/12/13 05:24:52;;;;;;;0.30;0.30;;;;;;;;;;5069824;28;20132;-69
2021/12/13 05:27:35;;;;;;;0.13;0.13;;;;;;;;;;5070241;28;20040;-69
2021/12/13 05:30:13;;;;;;;2.72;0.88;;;;;;;;;;5080710;28;20726;-69
2021/12/13 05:32:41;;;;;;;2.90;0.70;;;;;;;;;;5088470;28;20044;-69
2021/12/13 05:35:17;;;;;;;1.33;1.13;;;;;;;;;;5069611;28;20040;-69
2021/12/13 05:37:46;;;;;;;1.47;1.23;;;;;;;;;;5068706;28;20506;-69
2021/12/13 05:40:44;;;;;;;1.00;0.70;;;;;;;;;;5060749;28;20043;-69
2021/12/13 05:43:22;;;;;;;0.50;0.50;;;;;;;;;;5035323;28;20409;-69
2021/12/13 05:45:51;;;;;;;1.10;1.00;;;;;;;;;;5091867;28;20040;-69
2021/12/13 05:48:19;;;;;;;1.47;0.77;;;;;;;;;;5083973;28;20036;-69
2021/12/13 05:50:48;;;;;;;0.77;0.77;;;;;;;;;;5065594;28;20056;-69
2021/12/13 05:53:21;;;;;;;14.27;1.43;;;;;;;;;;5047133;28;20039;-69
2021/12/13 05:55:47;;;;;;;0.55;0.55;;;;;;;;;;5091563;28;20169;-69
2021/12/13 05:58:13;;;;;;;0.43;0.37;;;;;;;;;;5072719;28;20131;-69
2021/12/13 06:00:40;;;;;;;1.07;0.97;;;;;;;;;;5091711;28;20032;-70
2021/12/13 06:03:16;;;;;;;0.50;0.50;;;;;;;;;;5083367;28;20058;-69
2021/12/13 06:05:51;;;;;;;0.00;0.00;;;;;;;;;;5091908;28;20048;-69
2021/12/13 06:08:20;;;;;;;2.93;0.73;;;;;;;;;;5084375;28;20047;-69
2021/12/13 06:10:57;;;;;;;0.70;0.67;;;;;;;;;;5082889;28;20044;-69
2021/12/13 06:13:42;;;;;;;1.13;1.00;;;;;;;;;;5085679;28;20514;-70
2021/12/13 06:16:09;;;;;;;1.47;0.70;;;;;;;;;;5090642;28;20059;-69
2021/12/13 06:18:59;;;;;;;1.33;1.23;;;;;;;;;;5091609;28;20052;-69
2021/12/13 06:21:34;;;;;;;0.73;0.73;;;;;;;;;;5027440;28;20047;-69
2021/12/13 06:24:01;;;;;;;2.93;1.90;;;;;;;;;;5091198;28;20048;-69
2021/12/13 06:26:28;;;;;;;0.80;0.77;;;;;;;;;;5056419;28;20127;-69
2021/12/13 06:28:57;;;;;;;2.17;1.13;;;;;;;;;;5082105;28;20048;-69
2021/12/13 06:31:24;;;;;;;0.83;0.83;;;;;;;;;;5065757;28;20052;-70
2021/12/13 06:33:52;;;;;;;0.30;0.30;;;;;;;;;;5083613;28;20123;-69
2021/12/13 06:36:28;;;;;;;12.47;1.43;;;;;;;;;;5082186;28;20406;-69
2021/12/13 06:38:56;;;;;;;1.40;1.30;;;;;;;;;;5064953;28;20402;-69
2021/12/13 06:41:28;;;;;;;6.57;3.17;;;;;;;;;;5069390;28;20068;-69
2021/12/13 06:43:59;;;;;;;3.70;1.50;;;;;;;;;;5079379;28;20058;-69
2021/12/13 06:46:25;;;;;;;1.07;1.00;;;;;;;;;;5091074;28;20044;-70
2021/12/13 06:49:03;;;;;;;2.80;1.83;;;;;;;;;;5090406;28;20079;-69
2021/12/13 06:51:44;;;;;;;1.00;0.97;;;;;;;;;;5090078;28;20055;-69
2021/12/13 06:54:12;;;;;;;0.93;0.93;;;;;;;;;;5091077;28;20085;-69
2021/12/13 06:56:39;;;;;;;6.00;1.83;;;;;;;;;;5082371;28;20047;-69
2021/12/13 06:59:06;;;;;;;0.93;0.87;;;;;;;;;;5090337;28;20137;-70
2021/12/13 07:01:33;;;;;;;1.90;1.70;;;;;;;;;;5091163;28;20048;-69
2021/12/13 07:04:11;;;;;;;2.90;2.63;;;;;;;;;;5082459;28;20052;-70
2021/12/13 07:06:38;;;;;;;2.63;0.87;;;;;;;;;;5089381;28;20524;-70
2021/12/13 07:09:06;;;;;;;1.00;0.80;;;;;;;;;;5082683;28;20044;-69
2021/12/13 07:12:01;;;;;;;4.07;1.70;;;;;;;;;;5082803;28;20489;-69
2021/12/13 07:14:37;;;;;;;2.97;1.33;;;;;;;;;;5055217;28;20174;-69
2021/12/13 07:17:17;;;;;;;6.10;1.43;;;;;;;;;;5089988;28;20068;-69
2021/12/13 07:19:44;;;;;;;0.97;0.93;;;;;;;;;;5060104;28;20048;-69
2021/12/13 07:22:11;;;;;;;2.27;2.10;;;;;;;;;;5069164;28;20048;-70
2021/12/13 07:24:42;;;;;;;3.63;2.03;;;;;;;;;;5089820;28;20604;-69
2021/12/13 07:27:16;;;;;;;2.17;2.00;;;;;;;;;;5090427;28;20055;-69
2021/12/13 07:29:44;;;;;;;2.17;2.00;;;;;;;;;;5071873;28;20131;-70
2021/12/13 07:32:10;;;;;;;2.73;1.87;;;;;;;;;;5065533;28;20044;-69
2021/12/13 07:34:48;;;;;;;1.37;1.03;;;;;;;;;;5076667;28;20048;-69
2021/12/13 07:37:14;;;;;;;1.63;1.53;;;;;;;;;;5063088;28;20067;-69
2021/12/13 07:39:40;;;;;;;5.90;2.80;;;;;;;;;;5071733;28;20466;-70
2021/12/13 07:42:08;;;;;;;3.20;1.57;;;;;;;;;;5071774;28;20071;-69
2021/12/13 07:44:39;;;;;;;3.03;1.30;;;;;;;;;;5071275;28;20048;-70
2021/12/13 07:47:16;;;;;;;2.00;1.90;;;;;;;;;;5068955;28;20201;-69
2021/12/13 07:49:43;;;;;;;3.67;2.30;;;;;;;;;;5080312;28;20506;-70
2021/12/13 07:52:10;;;;;;;1.63;1.53;;;;;;;;;;5071891;28;20485;-69
2021/12/13 07:54:38;;;;;;;1.63;1.53;;;;;;;;;;5054841;28;20087;-69
2021/12/13 07:57:05;;;;;;;3.30;1.00;;;;;;;;;;5056299;28;20046;-69
2021/12/13 07:59:33;;;;;;;1.00;0.90;;;;;;;;;;5062944;28;20541;-69
2021/12/13 08:02:01;;;;;;;7.13;2.27;;;;;;;;;;5066970;28;20071;-69
2021/12/13 08:04:32;;;;;;;2.70;0.80;;;;;;;;;;5066679;28;20040;-69
2021/12/13 08:07:00;;;;;;;1.30;1.20;;;;;;;;;;5051537;28;20048;-70
2021/12/13 08:09:28;;;;;;;0.90;0.83;;;;;;;;;;5063679;28;20109;-69
2021/12/13 08:11:54;;;;;;;1.30;1.20;;;;;;;;;;5071159;28;20402;-70
2021/12/13 08:14:29;;;;;;;1.63;1.43;;;;;;;;;;5089236;28;20052;-69
2021/12/13 08:16:55;;;;;;;3.17;1.77;;;;;;;;;;5089365;28;20063;-69
2021/12/13 08:19:23;;;;;;;2.50;1.47;;;;;;;;;;5089653;28;20043;-69
2021/12/13 08:21:59;;;;;;;1.90;1.13;;;;;;;;;;5075805;28;20048;-70
2021/12/13 08:24:27;;;;;;;1.17;1.03;;;;;;;;;;5068478;28;20470;-70
2021/12/13 08:26:55;;;;;;;0.57;0.57;;;;;;;;;;5066848;28;20077;-70
2021/12/13 08:29:23;;;;;;;2.87;2.30;;;;;;;;;;5069676;28;20072;-69
2021/12/13 08:31:53;;;;;;;0.53;0.53;;;;;;;;;;5077238;28;20100;-69
2021/12/13 08:34:40;;;;;;;1.97;1.80;;;;;;;;;;5045905;28;20123;-69
2021/12/13 08:37:18;;;;;;;0.60;0.60;;;;;;;;;;5082570;28;20047;-70
2021/12/13 08:39:47;;;;;;;3.23;2.03;;;;;;;;;;5069759;28;20044;-70
2021/12/13 08:42:16;;;;;;;1.40;1.17;;;;;;;;;;5067981;28;20040;-70
2021/12/13 08:44:45;;;;;;;3.07;2.33;;;;;;;;;;5054701;28;20094;-69
2021/12/13 08:47:19;;;;;;;0.87;0.73;;;;;;;;;;5077733;28;20071;-70
2021/12/13 08:49:47;;;;;;;2.53;1.27;;;;;;;;;;5043815;28;20123;-70
2021/12/13 08:52:20;;;;;;;0.40;0.40;;;;;;;;;;5081085;28;20582;-70
2021/12/13 08:54:52;;;;;;;3.20;2.53;;;;;;;;;;5081325;28;20049;-70
2021/12/13 08:57:30;;;;;;;0.57;0.57;;;;;;;;;;5056578;28;20091;-70
2021/12/13 08:59:57;;;;;;;2.50;1.43;;;;;;;;;;5060130;28;20521;-70
2021/12/13 09:02:26;;;;;;;2.00;1.90;;;;;;;;;;5063089;28;20536;-70
2021/12/13 09:05:06;;;;;;;1.10;1.00;;;;;;;;;;5057159;28;20667;-70
2021/12/13 09:07:33;;;;;;;1.37;0.93;;;;;;;;;;5067300;28;20044;-70
2021/12/13 09:09:59;;;;;;;3.73;2.50;;;;;;;;;;5058593;28;20135;-69
2021/12/13 09:12:27;;;;;;;1.77;1.43;;;;;;;;;;5069421;28;20503;-70
2021/12/13 09:14:55;;;;;;;3.83;1.90;;;;;;;;;;5082280;28;20044;-70
2021/12/13 09:17:32;;;;;;;1.27;0.63;;;;;;;;;;5084713;28;20047;-70
2021/12/13 09:20:06;;;;;;;0.53;0.53;;;;;;;;;;5088217;28;20044;-70
2021/12/13 09:22:43;;;;;;;3.27;2.13;;;;;;;;;;5087969;28;20442;-70
2021/12/13 09:25:09;;;;;;;4.03;2.10;;;;;;;;;;5088414;28;20052;-70
2021/12/13 09:27:41;;;;;;;1.30;1.20;;;;;;;;;;5088074;28;20055;-70
2021/12/13 09:30:15;;;;;;;1.10;1.03;;;;;;;;;;5070264;28;20563;-69
2021/12/13 09:32:48;;;;;;;2.33;1.70;;;;;;;;;;5069508;28;20071;-69
2021/12/13 09:35:20;;;;;;;1.57;1.33;;;;;;;;;;5069963;28;20083;-70
2021/12/13 09:37:47;;;;;;;1.23;0.90;;;;;;;;;;5069986;28;20097;-70
2021/12/13 09:40:13;;;;;;;1.37;1.13;;;;;;;;;;5087117;28;20044;-70
2021/12/13 09:42:48;;;;;;;1.73;1.37;;;;;;;;;;5069792;28;20052;-70
2021/12/13 09:45:20;;;;;;;1.33;1.20;;;;;;;;;;5069600;28;20105;-70
2021/12/13 09:47:46;;;;;;;59.23;30.47;;;;;;;;;;5088168;28;20494;-70
2021/12/13 09:50:12;;;;;;;58.90;29.03;;;;;;;;;;5069708;28;20052;-70
2021/12/13 09:52:56;;;;;;;56.53;29.87;;;;;;;;;;5069460;28;20054;-70
2021/12/13 09:55:31;;;;;;;54.80;28.93;;;;;;;;;;5088005;28;20044;-70
2021/12/13 09:58:01;;;;;;;72.53;31.57;;;;;;;;;;5069599;28;20109;-71
2021/12/13 10:00:46;;;;;;;54.97;28.93;;;;;;;;;;5069930;28;20056;-70
2021/12/13 10:03:24;;;;;;;63.97;29.70;;;;;;;;;;5088162;28;20052;-70
2021/12/13 10:05:54;;;;;;;59.63;29.60;;;;;;;;;;5069736;28;20051;-70
2021/12/13 10:08:24;;;;;;;48.13;29.33;;;;;;;;;;5087582;28;20502;-70
2021/12/13 10:10:52;;;;;;;51.63;26.60;;;;;;;;;;5069711;28;20113;-70
2021/12/13 10:13:21;;;;;;;52.83;27.97;;;;;;;;;;5070060;28;20044;-70
2021/12/13 10:15:59;;;;;;;50.67;26.40;;;;;;;;;;5073917;28;20086;-70
2021/12/13 10:18:26;;;;;;;43.93;26.00;;;;;;;;;;5069634;28;20391;-69
2021/12/13 10:20:54;;;;;;;46.13;25.53;;;;;;;;;;5069378;28;20044;-70
2021/12/13 10:23:25;;;;;;;48.47;25.87;;;;;;;;;;5069944;28;20044;-70
2021/12/13 10:25:53;;;;;;;47.63;25.03;;;;;;;;;;5090306;28;20040;-70
2021/12/13 10:28:21;;;;;;;43.93;24.37;;;;;;;;;;5091552;28;20420;-70
2021/12/13 10:30:53;;;;;;;51.00;25.90;;;;;;;;;;5073086;28;20052;-70
2021/12/13 10:33:20;;;;;;;47.03;25.53;;;;;;;;;;5091426;28;20040;-70
2021/12/13 10:35:46;;;;;;;51.50;26.77;;;;;;;;;;5072968;28;20075;-70
2021/12/13 10:38:18;;;;;;;50.47;24.17;;;;;;;;;;5072916;28;20044;-70
2021/12/13 10:40:55;;;;;;;48.80;24.37;;;;;;;;;;5091188;28;20043;-70
2021/12/13 10:43:26;;;;;;;47.10;23.60;;;;;;;;;;5091490;28;20051;-70
2021/12/13 10:45:55;;;;;;;39.67;22.90;;;;;;;;;;5072438;28;20138;-70
2021/12/13 10:48:25;;;;;;;42.40;22.13;;;;;;;;;;5091245;28;20048;-70
2021/12/13 10:50:58;;;;;;;44.67;22.97;;;;;;;;;;5090952;28;20118;-70
2021/12/13 10:53:25;;;;;;;46.58;23.08;;;;;;;;;;5091050;28;20059;-70
2021/12/13 10:55:53;;;;;;;42.73;23.73;;;;;;;;;;5072496;28;20520;-70
2021/12/13 10:58:24;;;;;;;43.03;23.93;;;;;;;;;;5072721;28;20047;-70
2021/12/13 11:14:16;;;;;;;47.77;24.23;;;;;;;;;;5072500;28;20040;-70
2021/12/13 11:16:43;;;;;;;44.43;23.93;;;;;;;;;;5090410;28;20063;-70
2021/12/13 11:19:12;;;;;;;42.53;22.03;;;;;;;;;;5072486;28;20590;-70
2021/12/13 11:21:39;;;;;;;44.43;23.27;;;;;;;;;;5090315;28;20052;-70
2021/12/13 11:24:07;;;;;;;38.47;23.43;;;;;;;;;;5071690;28;20059;-70
2021/12/13 11:26:34;;;;;;;45.83;22.63;;;;;;;;;;5071818;28;20101;-70
2021/12/13 11:29:00;;;;;;;39.63;22.33;;;;;;;;;;5071927;28;20051;-70
2021/12/13 11:31:29;;;;;;;43.50;25.07;;;;;;;;;;5071903;28;20044;-70
2021/12/13 11:34:15;;;;;;;49.90;23.97;;;;;;;;;;5090228;28;20080;-70
2021/12/13 11:36:59;;;;;;;41.13;23.80;;;;;;;;;;5089692;28;20547;-70
2021/12/13 11:39:30;;;;;;;38.43;23.10;;;;;;;;;;5071603;28;20063;-70
2021/12/13 11:42:15;;;;;;;38.27;21.90;;;;;;;;;;5071912;28;20044;-71
2021/12/13 11:44:59;;;;;;;38.97;21.77;;;;;;;;;;5089677;28;20052;-70
2021/12/13 11:47:34;;;;;;;42.20;21.40;;;;;;;;;;5071824;28;20467;-70
2021/12/13 11:50:19;;;;;;;43.33;21.80;;;;;;;;;;5089610;28;20048;-70
2021/12/13 11:53:04;;;;;;;45.43;22.67;;;;;;;;;;5071593;28;20405;-70
2021/12/13 11:55:49;;;;;;;39.87;21.87;;;;;;;;;;5071525;28;20059;-70
2021/12/13 11:58:24;;;;;;;38.00;20.70;;;;;;;;;;5071084;28;20060;-70
2021/12/13 12:00:50;;;;;;;52.03;25.17;;;;;;;;;;5070968;28;20675;-70
2021/12/13 12:03:25;;;;;;;38.67;21.87;;;;;;;;;;5055037;28;20134;-70
2021/12/13 12:06:15;;;;;;;39.77;22.80;;;;;;;;;;5089682;28;20040;-70
2021/12/13 12:09:03;;;;;;;37.93;22.07;;;;;;;;;;5071248;28;20064;-71
2021/12/13 12:11:48;;;;;;;36.33;20.43;;;;;;;;;;5070811;28;20533;-71
2021/12/13 12:14:16;;;;;;;43.37;20.03;;;;;;;;;;5068745;28;20533;-71
2021/12/13 12:16:45;;;;;;;32.63;19.90;;;;;;;;;;5089345;28;20064;-70
2021/12/13 12:19:15;;;;;;;44.77;22.00;;;;;;;;;;5063913;28;20060;-71
2021/12/13 12:21:44;;;;;;;36.97;20.30;;;;;;;;;;5074189;28;20073;-71
2021/12/13 12:24:10;;;;;;;35.67;19.80;;;;;;;;;;5069707;28;20456;-70
2021/12/13 12:26:36;;;;;;;33.00;19.67;;;;;;;;;;5062319;28;20097;-71
2021/12/13 12:29:08;;;;;;;35.80;20.77;;;;;;;;;;5063367;28;20421;-70
2021/12/13 12:31:35;;;;;;;35.13;19.10;;;;;;;;;;5081957;28;20055;-70
2021/12/13 12:34:02;;;;;;;42.27;21.67;;;;;;;;;;5085013;28;20040;-70
2021/12/13 12:36:40;;;;;;;30.67;19.20;;;;;;;;;;5063450;28;20131;-70
2021/12/13 12:39:06;;;;;;;35.53;20.17;;;;;;;;;;5063076;28;20398;-70
2021/12/13 12:41:40;;;;;;;33.97;18.57;;;;;;;;;;5072255;28;20536;-71
2021/12/13 12:44:06;;;;;;;28.97;19.33;;;;;;;;;;5052591;28;20051;-71
2021/12/13 12:46:39;;;;;;;35.67;19.93;;;;;;;;;;5066130;28;20834;-71
2021/12/13 12:49:11;;;;;;;34.40;18.98;;;;;;;;;;5065136;28;20102;-71
2021/12/13 12:51:38;;;;;;;34.05;19.30;;;;;;;;;;5050475;28;20041;-71
2021/12/13 12:54:12;;;;;;;36.67;19.27;;;;;;;;;;5091713;28;20099;-70
2021/12/13 12:56:51;;;;;;;33.53;20.77;;;;;;;;;;5064350;28;20102;-71
2021/12/13 12:59:19;;;;;;;31.53;18.03;;;;;;;;;;5086661;28;20044;-71
2021/12/13 13:01:47;;;;;;;31.77;18.70;;;;;;;;;;5068073;28;20123;-71
2021/12/13 13:04:13;;;;;;;33.47;17.90;;;;;;;;;;5079017;28;20040;-71
2021/12/13 13:06:58;;;;;;;35.80;20.70;;;;;;;;;;5079467;28;20418;-71
2021/12/13 13:09:33;;;;;;;38.23;22.37;;;;;;;;;;5084585;28;20105;-71
2021/12/13 13:11:59;;;;;;;36.43;22.03;;;;;;;;;;5054528;28;20048;-71
2021/12/13 13:14:28;;;;;;;45.53;26.97;;;;;;;;;;5080612;28;21118;-71
2021/12/13 13:16:56;;;;;;;47.27;27.57;;;;;;;;;;5060091;28;20045;-71
2021/12/13 13:19:28;;;;;;;51.57;32.20;;;;;;;;;;5079759;28;20114;-71
2021/12/13 13:21:54;;;;;;;60.77;37.50;;;;;;;;;;5084611;28;20040;-70
2021/12/13 13:24:20;;;;;;;61.53;40.77;;;;;;;;;;5067433;28;20513;-70
2021/12/13 13:26:47;;;;;;;61.07;42.40;;;;;;;;;;5067650;28;20054;-71
2021/12/13 13:29:16;;;;;;;65.47;43.67;;;;;;;;;;5082124;28;20565;-71
2021/12/13 13:31:49;;;;;;;64.10;41.40;;;;;;;;;;5080691;28;20055;-71
2021/12/13 13:34:18;;;;;;;60.50;38.55;;;;;;;;;;5053917;28;20076;-71
2021/12/13 13:36:49;;;;;;;53.70;33.90;;;;;;;;;;5074669;28;20052;-71
2021/12/13 13:39:18;;;;;;;42.60;27.83;;;;;;;;;;5067953;28;20131;-71
2021/12/13 13:41:46;;;;;;;40.30;24.13;;;;;;;;;;5069981;28;20058;-71
2021/12/13 13:44:16;;;;;;;35.40;21.83;;;;;;;;;;5087130;28;20046;-71
2021/12/13 13:46:43;;;;;;;35.63;21.37;;;;;;;;;;5033658;28;20063;-71
2021/12/13 13:49:09;;;;;;;29.73;18.03;;;;;;;;;;5062841;28;20425;-71
2021/12/13 13:51:36;;;;;;;27.40;16.93;;;;;;;;;;5036312;28;20108;-71
2021/12/13 13:54:03;;;;;;;30.30;18.23;;;;;;;;;;5070730;28;20052;-70
2021/12/13 13:56:31;;;;;;;26.97;17.53;;;;;;;;;;5082348;28;20064;-71
2021/12/13 13:58:59;;;;;;;30.10;18.00;;;;;;;;;;5062145;28;20874;-70
2021/12/13 14:01:46;;;;;;;26.83;16.90;;;;;;;;;;5080525;28;20159;-71
2021/12/13 14:04:21;;;;;;;26.63;16.93;;;;;;;;;;5073275;28;20570;-70
2021/12/13 14:06:49;;;;;;;26.53;16.23;;;;;;;;;;5071525;28;20052;-71
2021/12/13 14:09:17;;;;;;;26.10;15.97;;;;;;;;;;5061578;28;20128;-71
2021/12/13 14:11:43;;;;;;;28.73;18.00;;;;;;;;;;5084790;28;20573;-71
2021/12/13 14:14:09;;;;;;;23.27;15.13;;;;;;;;;;5081558;28;20093;-71
2021/12/13 14:16:35;;;;;;;33.80;18.37;;;;;;;;;;5068652;28;20063;-71
2021/12/13 14:19:04;;;;;;;32.33;17.23;;;;;;;;;;5060357;28;20051;-71
2021/12/13 14:21:31;;;;;;;34.03;16.80;;;;;;;;;;5065214;28;20131;-71
2021/12/13 14:23:58;;;;;;;33.23;16.43;;;;;;;;;;5063300;28;20051;-70
2021/12/13 14:26:26;;;;;;;27.00;16.03;;;;;;;;;;5080628;28;20040;-70
2021/12/13 14:28:58;;;;;;;26.97;15.93;;;;;;;;;;5072079;28;20048;-71
2021/12/13 14:31:26;;;;;;;30.87;16.30;;;;;;;;;;5084423;28;20039;-70
2021/12/13 14:33:55;;;;;;;28.83;16.50;;;;;;;;;;5088340;28;20067;-70
2021/12/13 14:36:24;;;;;;;30.43;17.60;;;;;;;;;;5090274;28;20047;-71
2021/12/13 14:39:07;;;;;;;25.93;16.97;;;;;;;;;;5068444;28;20044;-70
2021/12/13 14:41:35;;;;;;;28.98;17.17;;;;;;;;;;5088276;28;20052;-71
2021/12/13 14:44:03;;;;;;;30.03;16.77;;;;;;;;;;5078270;28;20978;-71
2021/12/13 14:46:38;;;;;;;31.07;16.63;;;;;;;;;;5073773;28;20056;-71
2021/12/13 14:49:07;;;;;;;33.27;17.73;;;;;;;;;;5090619;28;20487;-71
2021/12/13 14:51:41;;;;;;;30.33;16.50;;;;;;;;;;5064202;28;20051;-71
2021/12/13 14:54:08;;;;;;;34.67;17.40;;;;;;;;;;5072438;28;20051;-71
2021/12/13 14:56:34;;;;;;;31.13;18.40;;;;;;;;;;5082132;28;20042;-71
2021/12/13 14:59:02;;;;;;;30.50;17.90;;;;;;;;;;5090395;28;20488;-71
2021/12/13 15:01:32;;;;;;;27.23;16.40;;;;;;;;;;5090137;28;20055;-71
2021/12/13 15:04:04;;;;;;;28.23;17.97;;;;;;;;;;5090439;28;20043;-71
2021/12/13 15:06:32;;;;;;;29.37;16.97;;;;;;;;;;5071337;28;20062;-71
2021/12/13 15:09:02;;;;;;;31.13;18.23;;;;;;;;;;5090683;28;20130;-71
2021/12/13 15:11:30;;;;;;;29.93;17.20;;;;;;;;;;5086638;28;20093;-70
2021/12/13 15:13:58;;;;;;;30.37;17.77;;;;;;;;;;5084015;28;20123;-71
2021/12/13 15:16:27;;;;;;;29.17;17.07;;;;;;;;;;5082761;28;20132;-70